sensor_id;sensor_type;location;lat;lon;timestamp;temperature;humidity
21568;DHT22;10944;42.590;12.630;2022-12-07T00:00:30;9.20;99.90
21568;DHT22;10944;42.590;12.630;2022-12-07T00:02:56;9.20;99.90
21568;DHT22;10944;42.590;12.630;2022-12-07T00:05:21;9.20;99.90
21568;DHT22;10944;42.590;12.630;2022-12-07T00:07:47;9.30;99.90
21568;DHT22;10944;42.590;12.630;2022-12-07T00:10:13;9.30;99.90
21568;DHT22;10944;42.590;12.630;2022-12-07T00:12:38;9.30;99.90
21568;DHT22;10944;42.590;12.630;2022-12-07T00:15:04;9.20;99.90
21568;DHT22;10944;42.590;12.630;2022-12-07T00:17:30;9.20;99.90
21568;DHT22;10944;42.590;12.630;2022-12-07T00:19:56;9.20;99.90
21568;DHT22;10944;42.590;12.630;2022-12-07T00:22:21;9.20;99.90
21568;DHT22;10944;42.590;12.630;2022-12-07T00:24:47;9.20;99.90
21568;DHT22;10944;42.590;12.630;2022-12-07T00:27:13;9.20;99.90
21568;DHT22;10944;42.590;12.630;2022-12-07T00:29:38;9.20;99.90
21568;DHT22;10944;42.590;12.630;2022-12-07T00:32:04;9.20;99.90
21568;DHT22;10944;42.590;12.630;2022-12-07T00:34:30;9.40;99.90
21568;DHT22;10944;42.590;12.630;2022-12-07T00:36:55;9.50;99.90
21568;DHT22;10944;42.590;12.630;2022-12-07T00:39:21;9.50;99.90
21568;DHT22;10944;42.590;12.630;2022-12-07T00:41:47;9.40;99.90
21568;DHT22;10944;42.590;12.630;2022-12-07T00:44:13;9.30;99.90
21568;DHT22;10944;42.590;12.630;2022-12-07T00:46:39;9.30;99.90
21568;DHT22;10944;42.590;12.630;2022-12-07T00:49:04;9.30;99.90
21568;DHT22;10944;42.590;12.630;2022-12-07T00:51:30;9.30;99.90
21568;DHT22;10944;42.590;12.630;2022-12-07T00:53:56;9.40;99.90
21568;DHT22;10944;42.590;12.630;2022-12-07T00:56:24;9.50;99.90
21568;DHT22;10944;42.590;12.630;2022-12-07T00:59:01;9.60;99.90
21568;DHT22;10944;42.590;12.630;2022-12-07T01:01:30;9.70;99.90
21568;DHT22;10944;42.590;12.630;2022-12-07T01:03:57;9.80;99.90
21568;DHT22;10944;42.590;12.630;2022-12-07T01:06:23;9.80;99.90
21568;DHT22;10944;42.590;12.630;2022-12-07T01:08:50;9.80;99.90
21568;DHT22;10944;42.590;12.630;2022-12-07T01:11:18;9.70;99.90
21568;DHT22;10944;42.590;12.630;2022-12-07T01:13:44;9.70;99.90
21568;DHT22;10944;42.590;12.630;2022-12-07T01:16:13;9.60;99.90
21568;DHT22;10944;42.590;12.630;2022-12-07T01:18:40;9.40;99.90
21568;DHT22;10944;42.590;12.630;2022-12-07T01:21:20;9.30;99.90
21568;DHT22;10944;42.590;12.630;2022-12-07T01:23:46;9.30;99.90
21568;DHT22;10944;42.590;12.630;2022-12-07T01:26:15;9.20;99.90
21568;DHT22;10944;42.590;12.630;2022-12-07T01:28:41;9.10;99.90
21568;DHT22;10944;42.590;12.630;2022-12-07T01:31:13;9.20;99.90
21568;DHT22;10944;42.590;12.630;2022-12-07T01:33:41;9.50;99.90
21568;DHT22;10944;42.590;12.630;2022-12-07T01:36:20;9.50;99.90
21568;DHT22;10944;42.590;12.630;2022-12-07T01:38:48;9.40;99.90
21568;DHT22;10944;42.590;12.630;2022-12-07T01:41:14;9.30;99.90
21568;DHT22;10944;42.590;12.630;2022-12-07T01:46:34;9.20;99.90
21568;DHT22;10944;42.590;12.630;2022-12-07T01:49:00;9.20;99.90
21568;DHT22;10944;42.590;12.630;2022-12-07T01:51:27;9.20;99.90
21568;DHT22;10944;42.590;12.630;2022-12-07T01:53:53;9.30;99.90
21568;DHT22;10944;42.590;12.630;2022-12-07T01:56:22;9.30;99.90
21568;DHT22;10944;42.590;12.630;2022-12-07T01:58:49;9.40;99.90
21568;DHT22;10944;42.590;12.630;2022-12-07T02:01:15;9.50;99.90
21568;DHT22;10944;42.590;12.630;2022-12-07T02:03:43;9.50;99.90
21568;DHT22;10944;42.590;12.630;2022-12-07T02:06:12;9.50;99.90
21568;DHT22;10944;42.590;12.630;2022-12-07T02:08:39;9.60;99.90
21568;DHT22;10944;42.590;12.630;2022-12-07T02:11:06;9.60;99.90
21568;DHT22;10944;42.590;12.630;2022-12-07T02:13:36;9.50;99.90
21568;DHT22;10944;42.590;12.630;2022-12-07T02:16:29;9.40;99.90
21568;DHT22;10944;42.590;12.630;2022-12-07T02:27:50;8.90;99.90
21568;DHT22;10944;42.590;12.630;2022-12-07T02:30:22;8.90;99.90
21568;DHT22;10944;42.590;12.630;2022-12-07T02:33:22;8.90;99.90
21568;DHT22;10944;42.590;12.630;2022-12-07T02:36:11;8.90;99.90
21568;DHT22;10944;42.590;12.630;2022-12-07T02:39:06;8.90;99.90
21568;DHT22;10944;42.590;12.630;2022-12-07T02:41:40;8.90;99.90
21568;DHT22;10944;42.590;12.630;2022-12-07T02:44:11;9.00;99.90
21568;DHT22;10944;42.590;12.630;2022-12-07T02:46:44;9.10;99.90
21568;DHT22;10944;42.590;12.630;2022-12-07T02:49:11;9.10;99.90
21568;DHT22;10944;42.590;12.630;2022-12-07T02:51:42;9.20;99.90
21568;DHT22;10944;42.590;12.630;2022-12-07T02:54:18;9.20;99.90
21568;DHT22;10944;42.590;12.630;2022-12-07T03:01:39;9.10;99.90
21568;DHT22;10944;42.590;12.630;2022-12-07T03:07:01;9.00;99.90
21568;DHT22;10944;42.590;12.630;2022-12-07T03:15:57;8.90;99.90
21568;DHT22;10944;42.590;12.630;2022-12-07T03:18:16;8.80;99.90
21568;DHT22;10944;42.590;12.630;2022-12-07T03:20:44;8.80;99.90
21568;DHT22;10944;42.590;12.630;2022-12-07T03:23:12;8.70;99.90
21568;DHT22;10944;42.590;12.630;2022-12-07T03:25:44;8.60;99.90
21568;DHT22;10944;42.590;12.630;2022-12-07T03:28:13;8.60;99.90
21568;DHT22;10944;42.590;12.630;2022-12-07T03:30:51;8.50;99.90
21568;DHT22;10944;42.590;12.630;2022-12-07T03:33:21;8.50;99.90
21568;DHT22;10944;42.590;12.630;2022-12-07T03:36:09;8.50;99.90
21568;DHT22;10944;42.590;12.630;2022-12-07T03:38:58;8.40;99.90
21568;DHT22;10944;42.590;12.630;2022-12-07T03:41:32;8.50;99.90
21568;DHT22;10944;42.590;12.630;2022-12-07T03:43:59;8.50;99.90
21568;DHT22;10944;42.590;12.630;2022-12-07T03:52:00;8.50;99.90
21568;DHT22;10944;42.590;12.630;2022-12-07T03:57:15;8.60;99.90
21568;DHT22;10944;42.590;12.630;2022-12-07T03:59:43;8.70;99.90
21568;DHT22;10944;42.590;12.630;2022-12-07T04:02:11;8.80;99.90
21568;DHT22;10944;42.590;12.630;2022-12-07T04:04:38;8.90;99.90
21568;DHT22;10944;42.590;12.630;2022-12-07T04:07:04;9.00;99.90
21568;DHT22;10944;42.590;12.630;2022-12-07T04:09:30;9.00;99.90
21568;DHT22;10944;42.590;12.630;2022-12-07T04:11:56;9.20;99.90
21568;DHT22;10944;42.590;12.630;2022-12-07T04:14:21;9.10;99.90
21568;DHT22;10944;42.590;12.630;2022-12-07T04:16:55;9.10;99.90
21568;DHT22;10944;42.590;12.630;2022-12-07T04:19:26;9.10;99.90
21568;DHT22;10944;42.590;12.630;2022-12-07T04:21:52;9.10;99.90
21568;DHT22;10944;42.590;12.630;2022-12-07T04:24:18;9.20;99.90
21568;DHT22;10944;42.590;12.630;2022-12-07T04:26:45;9.20;99.90
21568;DHT22;10944;42.590;12.630;2022-12-07T04:29:11;9.10;99.90
21568;DHT22;10944;42.590;12.630;2022-12-07T04:31:37;9.00;99.90
21568;DHT22;10944;42.590;12.630;2022-12-07T04:34:04;8.90;99.90
21568;DHT22;10944;42.590;12.630;2022-12-07T04:36:31;8.80;99.90
21568;DHT22;10944;42.590;12.630;2022-12-07T04:38:57;8.70;99.90
21568;DHT22;10944;42.590;12.630;2022-12-07T04:41:23;8.60;99.90
21568;DHT22;10944;42.590;12.630;2022-12-07T04:44:10;8.50;99.90
21568;DHT22;10944;42.590;12.630;2022-12-07T04:46:39;8.40;99.90
21568;DHT22;10944;42.590;12.630;2022-12-07T04:49:05;8.40;99.90
21568;DHT22;10944;42.590;12.630;2022-12-07T04:51:31;8.30;99.90
21568;DHT22;10944;42.590;12.630;2022-12-07T04:53:56;8.20;99.90
21568;DHT22;10944;42.590;12.630;2022-12-07T04:56:23;8.20;99.90
21568;DHT22;10944;42.590;12.630;2022-12-07T04:58:50;8.10;99.90
21568;DHT22;10944;42.590;12.630;2022-12-07T05:01:17;8.10;99.90
21568;DHT22;10944;42.590;12.630;2022-12-07T05:03:43;8.10;99.90
21568;DHT22;10944;42.590;12.630;2022-12-07T05:06:11;8.10;99.90
21568;DHT22;10944;42.590;12.630;2022-12-07T05:08:37;8.10;99.90
21568;DHT22;10944;42.590;12.630;2022-12-07T05:11:04;8.10;99.90
21568;DHT22;10944;42.590;12.630;2022-12-07T05:13:30;8.10;99.90
21568;DHT22;10944;42.590;12.630;2022-12-07T05:15:56;8.10;99.90
21568;DHT22;10944;42.590;12.630;2022-12-07T05:18:22;8.10;99.90
21568;DHT22;10944;42.590;12.630;2022-12-07T05:20:48;8.10;99.90
21568;DHT22;10944;42.590;12.630;2022-12-07T05:23:13;8.10;99.90
21568;DHT22;10944;42.590;12.630;2022-12-07T05:25:39;8.00;99.90
21568;DHT22;10944;42.590;12.630;2022-12-07T05:28:05;8.00;99.90
21568;DHT22;10944;42.590;12.630;2022-12-07T05:30:31;7.90;99.90
21568;DHT22;10944;42.590;12.630;2022-12-07T05:32:57;7.90;99.90
21568;DHT22;10944;42.590;12.630;2022-12-07T05:35:24;7.80;99.90
21568;DHT22;10944;42.590;12.630;2022-12-07T05:37:49;7.70;99.90
21568;DHT22;10944;42.590;12.630;2022-12-07T05:40:16;7.60;99.90
21568;DHT22;10944;42.590;12.630;2022-12-07T05:42:42;7.60;99.90
21568;DHT22;10944;42.590;12.630;2022-12-07T05:45:09;7.60;99.90
21568;DHT22;10944;42.590;12.630;2022-12-07T05:47:36;7.60;99.90
21568;DHT22;10944;42.590;12.630;2022-12-07T05:50:02;7.70;99.90
21568;DHT22;10944;42.590;12.630;2022-12-07T05:52:28;7.70;99.90
21568;DHT22;10944;42.590;12.630;2022-12-07T05:54:54;7.80;99.90
21568;DHT22;10944;42.590;12.630;2022-12-07T05:57:20;7.80;99.90
21568;DHT22;10944;42.590;12.630;2022-12-07T05:59:45;7.80;99.90
21568;DHT22;10944;42.590;12.630;2022-12-07T06:02:13;7.70;99.90
21568;DHT22;10944;42.590;12.630;2022-12-07T06:04:41;7.60;99.90
21568;DHT22;10944;42.590;12.630;2022-12-07T06:07:08;7.60;99.90
21568;DHT22;10944;42.590;12.630;2022-12-07T06:09:34;7.50;99.90
21568;DHT22;10944;42.590;12.630;2022-12-07T06:12:00;7.60;99.90
21568;DHT22;10944;42.590;12.630;2022-12-07T06:14:45;7.60;99.90
21568;DHT22;10944;42.590;12.630;2022-12-07T06:17:11;7.70;99.90
21568;DHT22;10944;42.590;12.630;2022-12-07T06:19:38;7.80;99.90
21568;DHT22;10944;42.590;12.630;2022-12-07T06:22:04;7.90;99.90
21568;DHT22;10944;42.590;12.630;2022-12-07T06:24:31;7.90;99.90
21568;DHT22;10944;42.590;12.630;2022-12-07T06:26:57;7.90;99.90
21568;DHT22;10944;42.590;12.630;2022-12-07T06:29:22;7.90;99.90
21568;DHT22;10944;42.590;12.630;2022-12-07T06:31:48;8.00;99.90
21568;DHT22;10944;42.590;12.630;2022-12-07T06:34:17;8.00;99.90
21568;DHT22;10944;42.590;12.630;2022-12-07T06:36:43;8.20;99.90
21568;DHT22;10944;42.590;12.630;2022-12-07T06:39:09;8.30;99.90
21568;DHT22;10944;42.590;12.630;2022-12-07T06:41:39;8.50;99.90
21568;DHT22;10944;42.590;12.630;2022-12-07T06:44:05;8.70;99.90
21568;DHT22;10944;42.590;12.630;2022-12-07T06:46:31;8.70;99.90
21568;DHT22;10944;42.590;12.630;2022-12-07T06:48:57;8.70;99.90
21568;DHT22;10944;42.590;12.630;2022-12-07T06:51:23;8.80;99.90
21568;DHT22;10944;42.590;12.630;2022-12-07T06:53:48;8.80;99.90
21568;DHT22;10944;42.590;12.630;2022-12-07T06:56:14;8.80;99.90
21568;DHT22;10944;42.590;12.630;2022-12-07T06:58:40;8.80;99.90
21568;DHT22;10944;42.590;12.630;2022-12-07T07:01:11;8.90;99.90
21568;DHT22;10944;42.590;12.630;2022-12-07T07:03:37;8.90;99.90
21568;DHT22;10944;42.590;12.630;2022-12-07T07:06:04;9.00;99.90
21568;DHT22;10944;42.590;12.630;2022-12-07T07:08:29;8.90;99.90
21568;DHT22;10944;42.590;12.630;2022-12-07T07:10:56;9.00;99.90
21568;DHT22;10944;42.590;12.630;2022-12-07T07:13:21;9.20;99.90
21568;DHT22;10944;42.590;12.630;2022-12-07T07:15:47;9.30;99.90
21568;DHT22;10944;42.590;12.630;2022-12-07T07:18:13;9.50;99.90
21568;DHT22;10944;42.590;12.630;2022-12-07T07:20:38;9.80;99.90
21568;DHT22;10944;42.590;12.630;2022-12-07T07:23:05;10.00;99.90
21568;DHT22;10944;42.590;12.630;2022-12-07T07:25:31;10.30;99.90
21568;DHT22;10944;42.590;12.630;2022-12-07T07:27:57;10.50;99.90
21568;DHT22;10944;42.590;12.630;2022-12-07T07:30:23;10.50;99.90
21568;DHT22;10944;42.590;12.630;2022-12-07T07:32:49;10.70;99.90
21568;DHT22;10944;42.590;12.630;2022-12-07T07:35:14;10.90;99.90
21568;DHT22;10944;42.590;12.630;2022-12-07T07:37:40;11.00;99.90
21568;DHT22;10944;42.590;12.630;2022-12-07T07:40:08;11.10;99.90
21568;DHT22;10944;42.590;12.630;2022-12-07T07:42:33;11.10;99.90
21568;DHT22;10944;42.590;12.630;2022-12-07T07:44:59;11.10;99.90
21568;DHT22;10944;42.590;12.630;2022-12-07T07:47:25;11.20;99.90
21568;DHT22;10944;42.590;12.630;2022-12-07T07:49:52;11.30;99.90
21568;DHT22;10944;42.590;12.630;2022-12-07T07:52:17;11.40;99.90
21568;DHT22;10944;42.590;12.630;2022-12-07T07:54:43;11.40;99.90
21568;DHT22;10944;42.590;12.630;2022-12-07T07:57:09;11.40;99.90
21568;DHT22;10944;42.590;12.630;2022-12-07T07:59:34;11.50;99.90
21568;DHT22;10944;42.590;12.630;2022-12-07T08:02:00;11.50;99.90
21568;DHT22;10944;42.590;12.630;2022-12-07T08:04:26;11.60;99.90
21568;DHT22;10944;42.590;12.630;2022-12-07T08:06:51;11.60;99.90
21568;DHT22;10944;42.590;12.630;2022-12-07T08:09:17;11.60;99.90
21568;DHT22;10944;42.590;12.630;2022-12-07T08:11:43;11.70;99.90
21568;DHT22;10944;42.590;12.630;2022-12-07T08:14:10;11.80;99.90
21568;DHT22;10944;42.590;12.630;2022-12-07T08:16:35;11.80;99.90
21568;DHT22;10944;42.590;12.630;2022-12-07T08:19:01;11.80;99.90
21568;DHT22;10944;42.590;12.630;2022-12-07T08:21:29;11.90;99.90
21568;DHT22;10944;42.590;12.630;2022-12-07T08:23:55;12.00;99.90
21568;DHT22;10944;42.590;12.630;2022-12-07T08:26:22;12.10;99.90
21568;DHT22;10944;42.590;12.630;2022-12-07T08:28:47;12.20;99.90
21568;DHT22;10944;42.590;12.630;2022-12-07T08:31:15;12.20;99.90
21568;DHT22;10944;42.590;12.630;2022-12-07T08:33:41;12.40;99.90
21568;DHT22;10944;42.590;12.630;2022-12-07T08:36:09;12.40;99.90
21568;DHT22;10944;42.590;12.630;2022-12-07T08:38:37;12.30;99.90
21568;DHT22;10944;42.590;12.630;2022-12-07T08:41:03;12.50;99.90
21568;DHT22;10944;42.590;12.630;2022-12-07T08:43:29;12.40;99.90
21568;DHT22;10944;42.590;12.630;2022-12-07T08:46:25;12.40;99.90
21568;DHT22;10944;42.590;12.630;2022-12-07T08:49:14;12.40;99.90
21568;DHT22;10944;42.590;12.630;2022-12-07T08:51:42;12.40;99.90
21568;DHT22;10944;42.590;12.630;2022-12-07T08:54:11;12.40;99.90
21568;DHT22;10944;42.590;12.630;2022-12-07T08:56:39;12.30;99.90
21568;DHT22;10944;42.590;12.630;2022-12-07T08:59:05;12.20;99.90
21568;DHT22;10944;42.590;12.630;2022-12-07T09:01:32;12.20;99.90
21568;DHT22;10944;42.590;12.630;2022-12-07T09:03:58;12.10;99.90
21568;DHT22;10944;42.590;12.630;2022-12-07T09:06:24;12.10;99.90
21568;DHT22;10944;42.590;12.630;2022-12-07T09:08:52;12.10;99.90
21568;DHT22;10944;42.590;12.630;2022-12-07T09:11:20;12.20;99.90
21568;DHT22;10944;42.590;12.630;2022-12-07T09:13:46;12.20;99.90
21568;DHT22;10944;42.590;12.630;2022-12-07T09:16:11;12.20;99.90
21568;DHT22;10944;42.590;12.630;2022-12-07T09:18:38;12.30;99.90
21568;DHT22;10944;42.590;12.630;2022-12-07T09:21:04;12.40;99.90
21568;DHT22;10944;42.590;12.630;2022-12-07T09:23:30;12.50;99.90
21568;DHT22;10944;42.590;12.630;2022-12-07T09:26:01;12.50;99.90
21568;DHT22;10944;42.590;12.630;2022-12-07T09:28:27;12.60;99.90
21568;DHT22;10944;42.590;12.630;2022-12-07T09:30:53;12.70;99.90
21568;DHT22;10944;42.590;12.630;2022-12-07T09:33:19;12.70;99.90
21568;DHT22;10944;42.590;12.630;2022-12-07T09:35:50;12.80;99.90
21568;DHT22;10944;42.590;12.630;2022-12-07T09:38:16;12.80;99.90
21568;DHT22;10944;42.590;12.630;2022-12-07T09:40:42;12.90;99.90
21568;DHT22;10944;42.590;12.630;2022-12-07T09:43:22;13.00;99.90
21568;DHT22;10944;42.590;12.630;2022-12-07T09:45:51;13.00;99.90
21568;DHT22;10944;42.590;12.630;2022-12-07T09:48:36;13.00;99.90
21568;DHT22;10944;42.590;12.630;2022-12-07T09:51:20;13.10;99.90
21568;DHT22;10944;42.590;12.630;2022-12-07T09:53:47;13.10;99.90
21568;DHT22;10944;42.590;12.630;2022-12-07T09:56:17;13.20;99.90
21568;DHT22;10944;42.590;12.630;2022-12-07T09:58:44;13.30;99.90
21568;DHT22;10944;42.590;12.630;2022-12-07T10:01:31;13.40;99.90
21568;DHT22;10944;42.590;12.630;2022-12-07T10:04:19;13.40;99.90
21568;DHT22;10944;42.590;12.630;2022-12-07T10:06:46;13.40;99.90
21568;DHT22;10944;42.590;12.630;2022-12-07T10:09:16;13.50;99.90
21568;DHT22;10944;42.590;12.630;2022-12-07T10:12:10;13.50;99.90
21568;DHT22;10944;42.590;12.630;2022-12-07T10:14:55;13.60;99.90
21568;DHT22;10944;42.590;12.630;2022-12-07T10:17:36;13.70;99.90
21568;DHT22;10944;42.590;12.630;2022-12-07T10:23:05;13.90;99.90
21568;DHT22;10944;42.590;12.630;2022-12-07T10:25:36;14.00;99.90
21568;DHT22;10944;42.590;12.630;2022-12-07T10:28:10;14.00;99.90
21568;DHT22;10944;42.590;12.630;2022-12-07T10:30:56;14.00;99.90
21568;DHT22;10944;42.590;12.630;2022-12-07T10:35:54;14.10;99.90
21568;DHT22;10944;42.590;12.630;2022-12-07T10:38:20;14.20;99.90
21568;DHT22;10944;42.590;12.630;2022-12-07T10:40:47;14.20;99.90
21568;DHT22;10944;42.590;12.630;2022-12-07T10:48:18;14.10;99.90
21568;DHT22;10944;42.590;12.630;2022-12-07T10:51:02;14.00;99.90
21568;DHT22;10944;42.590;12.630;2022-12-07T10:56:30;13.80;99.90
21568;DHT22;10944;42.590;12.630;2022-12-07T11:02:30;13.70;99.90
21568;DHT22;10944;42.590;12.630;2022-12-07T11:05:19;13.60;99.90
21568;DHT22;10944;42.590;12.630;2022-12-07T11:08:14;13.60;99.90
21568;DHT22;10944;42.590;12.630;2022-12-07T11:10:47;13.60;99.90
21568;DHT22;10944;42.590;12.630;2022-12-07T11:13:25;13.60;99.90
21568;DHT22;10944;42.590;12.630;2022-12-07T11:21:25;13.70;99.90
21568;DHT22;10944;42.590;12.630;2022-12-07T11:24:10;13.70;99.90
21568;DHT22;10944;42.590;12.630;2022-12-07T11:29:37;14.00;99.90
21568;DHT22;10944;42.590;12.630;2022-12-07T11:35:08;14.20;99.90
21568;DHT22;10944;42.590;12.630;2022-12-07T11:37:37;14.40;99.90
21568;DHT22;10944;42.590;12.630;2022-12-07T11:40:26;14.30;99.90
21568;DHT22;10944;42.590;12.630;2022-12-07T11:46:03;14.50;99.90
21568;DHT22;10944;42.590;12.630;2022-12-07T11:48:45;14.50;99.90
21568;DHT22;10944;42.590;12.630;2022-12-07T11:51:13;14.40;99.90
21568;DHT22;10944;42.590;12.630;2022-12-07T11:54:19;14.40;99.90
21568;DHT22;10944;42.590;12.630;2022-12-07T11:56:48;14.40;99.90
21568;DHT22;10944;42.590;12.630;2022-12-07T11:59:23;14.30;99.90
21568;DHT22;10944;42.590;12.630;2022-12-07T12:02:14;14.40;99.90
21568;DHT22;10944;42.590;12.630;2022-12-07T12:05:05;14.30;99.90
21568;DHT22;10944;42.590;12.630;2022-12-07T12:07:38;14.40;99.90
21568;DHT22;10944;42.590;12.630;2022-12-07T12:10:14;14.30;99.90
21568;DHT22;10944;42.590;12.630;2022-12-07T12:20:55;14.90;99.90
21568;DHT22;10944;42.590;12.630;2022-12-07T12:23:23;14.90;99.90
21568;DHT22;10944;42.590;12.630;2022-12-07T12:25:50;14.80;99.90
21568;DHT22;10944;42.590;12.630;2022-12-07T12:33:53;14.70;99.90
21568;DHT22;10944;42.590;12.630;2022-12-07T12:47:00;14.70;99.90
21568;DHT22;10944;42.590;12.630;2022-12-07T12:49:41;14.70;99.90
21568;DHT22;10944;42.590;12.630;2022-12-07T12:55:12;14.70;99.90
21568;DHT22;10944;42.590;12.630;2022-12-07T12:57:38;14.70;99.90
21568;DHT22;10944;42.590;12.630;2022-12-07T13:00:18;14.60;99.90
21568;DHT22;10944;42.590;12.630;2022-12-07T13:02:54;14.50;99.90
21568;DHT22;10944;42.590;12.630;2022-12-07T13:05:23;14.40;99.90
21568;DHT22;10944;42.590;12.630;2022-12-07T13:15:49;14.60;99.90
21568;DHT22;10944;42.590;12.630;2022-12-07T13:26:13;14.60;99.90
21568;DHT22;10944;42.590;12.630;2022-12-07T13:33:48;14.50;99.90
21568;DHT22;10944;42.590;12.630;2022-12-07T13:36:37;14.50;99.90
21568;DHT22;10944;42.590;12.630;2022-12-07T13:39:23;14.50;99.90
21568;DHT22;10944;42.590;12.630;2022-12-07T13:41:51;14.40;99.90
21568;DHT22;10944;42.590;12.630;2022-12-07T13:44:18;14.40;99.90
21568;DHT22;10944;42.590;12.630;2022-12-07T13:49:26;14.20;99.90
21568;DHT22;10944;42.590;12.630;2022-12-07T13:51:53;14.10;99.90
21568;DHT22;10944;42.590;12.630;2022-12-07T13:54:20;14.10;99.90
21568;DHT22;10944;42.590;12.630;2022-12-07T13:56:50;14.10;99.90
21568;DHT22;10944;42.590;12.630;2022-12-07T13:59:20;14.10;99.90
21568;DHT22;10944;42.590;12.630;2022-12-07T14:01:48;14.00;99.90
21568;DHT22;10944;42.590;12.630;2022-12-07T14:04:37;14.00;99.90
21568;DHT22;10944;42.590;12.630;2022-12-07T14:07:25;14.00;99.90
21568;DHT22;10944;42.590;12.630;2022-12-07T14:10:05;13.90;99.90
21568;DHT22;10944;42.590;12.630;2022-12-07T14:12:35;13.90;99.90
21568;DHT22;10944;42.590;12.630;2022-12-07T14:15:02;13.80;99.90
21568;DHT22;10944;42.590;12.630;2022-12-07T14:17:28;13.80;99.90
21568;DHT22;10944;42.590;12.630;2022-12-07T14:19:57;13.70;99.90
21568;DHT22;10944;42.590;12.630;2022-12-07T14:22:35;13.70;99.90
21568;DHT22;10944;42.590;12.630;2022-12-07T14:27:39;13.60;99.90
21568;DHT22;10944;42.590;12.630;2022-12-07T14:30:06;13.60;99.90
21568;DHT22;10944;42.590;12.630;2022-12-07T14:32:34;13.60;99.90
21568;DHT22;10944;42.590;12.630;2022-12-07T14:35:10;13.60;99.90
21568;DHT22;10944;42.590;12.630;2022-12-07T14:37:37;13.50;99.90
21568;DHT22;10944;42.590;12.630;2022-12-07T14:40:05;13.60;99.90
21568;DHT22;10944;42.590;12.630;2022-12-07T14:42:31;13.60;99.90
21568;DHT22;10944;42.590;12.630;2022-12-07T14:44:58;13.70;99.90
21568;DHT22;10944;42.590;12.630;2022-12-07T14:47:25;13.70;99.90
21568;DHT22;10944;42.590;12.630;2022-12-07T14:49:52;13.70;99.90
21568;DHT22;10944;42.590;12.630;2022-12-07T14:52:26;13.70;99.90
21568;DHT22;10944;42.590;12.630;2022-12-07T14:54:53;13.80;99.90
21568;DHT22;10944;42.590;12.630;2022-12-07T14:57:19;13.80;99.90
21568;DHT22;10944;42.590;12.630;2022-12-07T14:59:45;13.70;99.90
21568;DHT22;10944;42.590;12.630;2022-12-07T15:02:13;13.70;99.90
21568;DHT22;10944;42.590;12.630;2022-12-07T15:04:39;13.70;99.90
21568;DHT22;10944;42.590;12.630;2022-12-07T15:07:09;13.60;99.90
21568;DHT22;10944;42.590;12.630;2022-12-07T15:09:35;13.50;99.90
21568;DHT22;10944;42.590;12.630;2022-12-07T15:12:01;13.60;99.90
21568;DHT22;10944;42.590;12.630;2022-12-07T15:14:28;13.50;99.90
21568;DHT22;10944;42.590;12.630;2022-12-07T15:16:53;13.50;99.90
21568;DHT22;10944;42.590;12.630;2022-12-07T15:19:21;13.40;99.90
21568;DHT22;10944;42.590;12.630;2022-12-07T15:21:51;13.40;99.90
21568;DHT22;10944;42.590;12.630;2022-12-07T15:24:18;13.40;99.90
21568;DHT22;10944;42.590;12.630;2022-12-07T15:26:44;13.30;99.90
21568;DHT22;10944;42.590;12.630;2022-12-07T15:29:10;13.30;99.90
21568;DHT22;10944;42.590;12.630;2022-12-07T15:31:37;13.20;99.90
21568;DHT22;10944;42.590;12.630;2022-12-07T15:34:03;13.20;99.90
21568;DHT22;10944;42.590;12.630;2022-12-07T15:36:30;13.20;99.90
21568;DHT22;10944;42.590;12.630;2022-12-07T15:38:57;13.30;99.90
21568;DHT22;10944;42.590;12.630;2022-12-07T15:41:23;13.30;99.90
21568;DHT22;10944;42.590;12.630;2022-12-07T15:43:49;13.20;99.90
21568;DHT22;10944;42.590;12.630;2022-12-07T15:46:37;13.30;99.90
21568;DHT22;10944;42.590;12.630;2022-12-07T15:49:12;13.40;99.90
21568;DHT22;10944;42.590;12.630;2022-12-07T15:51:38;13.40;99.90
21568;DHT22;10944;42.590;12.630;2022-12-07T15:54:04;13.30;99.90
21568;DHT22;10944;42.590;12.630;2022-12-07T15:56:29;13.40;99.90
21568;DHT22;10944;42.590;12.630;2022-12-07T15:58:57;13.40;99.90
21568;DHT22;10944;42.590;12.630;2022-12-07T16:01:23;13.50;99.90
21568;DHT22;10944;42.590;12.630;2022-12-07T16:03:48;13.50;99.90
21568;DHT22;10944;42.590;12.630;2022-12-07T16:06:18;13.50;99.90
21568;DHT22;10944;42.590;12.630;2022-12-07T16:08:45;13.40;99.90
21568;DHT22;10944;42.590;12.630;2022-12-07T16:11:12;13.40;99.90
21568;DHT22;10944;42.590;12.630;2022-12-07T16:13:38;13.30;99.90
21568;DHT22;10944;42.590;12.630;2022-12-07T16:16:15;13.30;99.90
21568;DHT22;10944;42.590;12.630;2022-12-07T16:18:43;13.20;99.90
21568;DHT22;10944;42.590;12.630;2022-12-07T16:21:09;13.10;99.90
21568;DHT22;10944;42.590;12.630;2022-12-07T16:23:35;13.10;99.90
21568;DHT22;10944;42.590;12.630;2022-12-07T16:26:09;13.10;99.90
21568;DHT22;10944;42.590;12.630;2022-12-07T16:28:36;13.10;99.90
21568;DHT22;10944;42.590;12.630;2022-12-07T16:31:04;13.00;99.90
21568;DHT22;10944;42.590;12.630;2022-12-07T16:33:30;13.00;99.90
21568;DHT22;10944;42.590;12.630;2022-12-07T16:35:56;13.00;99.90
21568;DHT22;10944;42.590;12.630;2022-12-07T16:38:23;13.10;99.90
21568;DHT22;10944;42.590;12.630;2022-12-07T16:40:48;13.10;99.90
21568;DHT22;10944;42.590;12.630;2022-12-07T16:43:14;13.00;99.90
21568;DHT22;10944;42.590;12.630;2022-12-07T16:45:40;13.10;99.90
21568;DHT22;10944;42.590;12.630;2022-12-07T16:48:06;13.10;99.90
21568;DHT22;10944;42.590;12.630;2022-12-07T16:50:31;13.10;99.90
21568;DHT22;10944;42.590;12.630;2022-12-07T16:52:57;13.00;99.90
21568;DHT22;10944;42.590;12.630;2022-12-07T16:55:23;13.00;99.90
21568;DHT22;10944;42.590;12.630;2022-12-07T16:57:48;12.90;99.90
21568;DHT22;10944;42.590;12.630;2022-12-07T17:00:14;12.90;99.90
21568;DHT22;10944;42.590;12.630;2022-12-07T17:02:40;12.80;99.90
21568;DHT22;10944;42.590;12.630;2022-12-07T17:05:06;12.80;99.90
21568;DHT22;10944;42.590;12.630;2022-12-07T17:07:32;12.80;99.90
21568;DHT22;10944;42.590;12.630;2022-12-07T17:09:57;12.80;99.90
21568;DHT22;10944;42.590;12.630;2022-12-07T17:12:23;12.80;99.90
21568;DHT22;10944;42.590;12.630;2022-12-07T17:14:49;12.90;99.90
21568;DHT22;10944;42.590;12.630;2022-12-07T17:17:33;12.80;99.90
21568;DHT22;10944;42.590;12.630;2022-12-07T17:19:59;12.80;99.90
21568;DHT22;10944;42.590;12.630;2022-12-07T17:22:25;12.70;99.90
21568;DHT22;10944;42.590;12.630;2022-12-07T17:24:51;12.70;99.90
21568;DHT22;10944;42.590;12.630;2022-12-07T17:27:16;12.60;99.90
21568;DHT22;10944;42.590;12.630;2022-12-07T17:29:42;12.50;99.90
21568;DHT22;10944;42.590;12.630;2022-12-07T17:32:08;12.50;99.90
21568;DHT22;10944;42.590;12.630;2022-12-07T17:34:33;12.50;99.90